Time;durP1;ratioP1;P1;durP2;ratioP2;P2;SDS_P1;SDS_P2;PMS_P1;PMS_P2;Temp;Humidity;BMP_temperature;BMP_pressure;BME280_temperature;BME280_humidity;BME280_pressure;Samples;Min_cycle;Max_cycle;Signal;HPM_P1;HPM_P2
2023/10/19 00:00:40;;;;;;;18.52;10.73;;;12.30;93.70;;;;;;5041373;28;20469;-70
2023/10/19 00:03:06;;;;;;;13.48;9.90;;;12.30;94.70;;;;;;5041114;28;20469;-71
2023/10/19 00:05:35;;;;;;;17.08;10.60;;;12.40;92.20;;;;;;5041968;28;20445;-70
2023/10/19 00:08:06;;;;;;;15.80;10.90;;;12.40;92.40;;;;;;5041935;28;20928;-70
2023/10/19 00:10:35;;;;;;;14.30;10.10;;;12.40;92.40;;;;;;5041254;28;20395;-73
2023/10/19 00:13:05;;;;;;;15.30;11.00;;;12.40;91.90;;;;;;5040689;28;20383;-71
2023/10/19 00:15:34;;;;;;;14.70;10.00;;;12.40;93.50;;;;;;5040221;28;20395;-69
2023/10/19 00:18:08;;;;;;;14.55;10.23;;;12.40;94.20;;;;;;5040224;28;20414;-73
2023/10/19 00:20:51;;;;;;;16.00;10.83;;;12.40;95.00;;;;;;5039492;28;20407;-72
2023/10/19 00:23:24;;;;;;;14.25;10.85;;;12.40;96.10;;;;;;5039229;28;20371;-72
2023/10/19 00:25:53;;;;;;;15.45;10.77;;;12.40;96.60;;;;;;5040413;28;20379;-70
2023/10/19 00:28:19;;;;;;;16.42;10.65;;;12.50;95.80;;;;;;5041323;28;20398;-70
2023/10/19 00:30:46;;;;;;;16.83;11.18;;;12.50;96.50;;;;;;5040583;28;20720;-72
2023/10/19 00:33:20;;;;;;;16.02;11.10;;;12.50;98.00;;;;;;5039918;28;20764;-70
2023/10/19 00:41:04;;;;;;;15.48;11.48;;;12.40;99.90;;;;;;5040046;28;20394;-72
2023/10/19 00:43:33;;;;;;;15.63;12.20;;;12.50;99.90;;;;;;5037152;28;20453;-72
2023/10/19 00:46:03;;;;;;;15.98;11.30;;;12.40;99.90;;;;;;5038423;28;20387;-71
2023/10/19 00:48:29;;;;;;;18.20;11.30;;;12.50;99.90;;;;;;5038696;28;20387;-72
2023/10/19 00:51:06;;;;;;;17.17;11.40;;;12.50;99.90;;;;;;5038848;28;20425;-72
2023/10/19 00:53:35;;;;;;;18.92;11.75;;;12.50;99.90;;;;;;5039246;28;20750;-71
2023/10/19 00:56:05;;;;;;;17.70;12.30;;;12.60;99.90;;;;;;5038753;28;20391;-71
2023/10/19 00:58:31;;;;;;;19.90;11.60;;;12.60;99.30;;;;;;5040431;28;20487;-70
2023/10/19 01:00:59;;;;;;;17.27;12.00;;;12.60;99.90;;;;;;5040449;28;20383;-71
2023/10/19 01:03:31;;;;;;;15.30;11.60;;;12.60;99.90;;;;;;5039630;28;20441;-71
2023/10/19 01:05:58;;;;;;;14.43;11.02;;;12.60;99.90;;;;;;5040007;28;20858;-72
2023/10/19 01:08:24;;;;;;;18.10;11.77;;;12.60;99.90;;;;;;5040472;28;20386;-72
2023/10/19 01:10:52;;;;;;;17.10;11.52;;;12.60;99.90;;;;;;5039898;28;20857;-71
2023/10/19 01:13:26;;;;;;;16.30;11.05;;;12.60;99.90;;;;;;5039489;28;20399;-71
2023/10/19 01:15:53;;;;;;;18.92;11.30;;;12.60;99.90;;;;;;5040040;28;20878;-72
2023/10/19 01:18:19;;;;;;;18.03;12.90;;;12.60;99.90;;;;;;5040466;28;20449;-72
2023/10/19 01:20:50;;;;;;;16.83;11.97;;;12.60;99.90;;;;;;5039987;28;20399;-72
2023/10/19 01:28:28;;;;;;;16.73;12.80;;;12.40;99.90;;;;;;5039268;28;20391;-71
2023/10/19 01:30:53;;;;;;;21.02;13.27;;;12.50;99.90;;;;;;5039860;28;20394;-72
2023/10/19 01:33:20;;;;;;;18.10;12.50;;;12.60;99.90;;;;;;5039662;28;20504;-72
2023/10/19 01:38:31;;;;;;;19.85;13.10;;;12.60;99.90;;;;;;5038791;28;20457;-72
2023/10/19 01:40:59;;;;;;;21.50;13.55;;;12.70;99.90;;;;;;5039196;28;20386;-72
2023/10/19 01:43:31;;;;;;;18.88;12.90;;;12.70;99.90;;;;;;5038846;28;20817;-71
2023/10/19 01:46:05;;;;;;;19.58;13.40;;;12.70;99.90;;;;;;5039178;28;20395;-70
2023/10/19 01:48:34;;;;;;;18.63;13.00;;;12.70;99.90;;;;;;5039719;28;20850;-72
2023/10/19 01:51:05;;;;;;;20.83;12.90;;;12.70;99.90;;;;;;5041152;28;20952;-71
2023/10/19 01:53:33;;;;;;;20.15;12.88;;;12.70;99.90;;;;;;5038147;28;20383;-73
2023/10/19 01:55:58;;;;;;;20.50;13.55;;;12.70;99.90;;;;;;5038939;28;20413;-70
2023/10/19 01:58:25;;;;;;;19.05;13.55;;;12.70;99.90;;;;;;5035936;28;20415;-71
2023/10/19 02:00:55;;;;;;;18.90;12.87;;;12.80;99.90;;;;;;5038131;28;20427;-69
2023/10/19 02:03:24;;;;;;;16.75;13.32;;;12.80;99.90;;;;;;5039113;28;20425;-70
2023/10/19 02:05:58;;;;;;;17.80;12.93;;;12.70;99.90;;;;;;5039714;28;20941;-72
2023/10/19 02:08:27;;;;;;;19.85;12.93;;;12.80;99.90;;;;;;5038006;28;20380;-70
2023/10/19 02:10:53;;;;;;;16.98;12.85;;;12.80;99.90;;;;;;5037634;28;20406;-69
2023/10/19 02:13:23;;;;;;;21.58;13.77;;;12.80;99.90;;;;;;5039504;28;20394;-71
2023/10/19 02:15:49;;;;;;;17.90;12.40;;;12.80;99.90;;;;;;5038997;28;20383;-71
2023/10/19 02:18:14;;;;;;;17.70;12.15;;;12.90;99.90;;;;;;5039863;28;20987;-72
2023/10/19 02:20:41;;;;;;;19.57;12.73;;;12.80;99.90;;;;;;5039393;28;20886;-70
2023/10/19 02:23:11;;;;;;;18.90;12.90;;;12.90;99.90;;;;;;5038238;28;20379;-71
2023/10/19 02:25:37;;;;;;;18.97;13.10;;;13.00;99.90;;;;;;5037849;28;20387;-69
2023/10/19 02:28:06;;;;;;;15.30;11.87;;;13.00;99.90;;;;;;5038641;28;20394;-73
2023/10/19 02:30:33;;;;;;;16.17;12.05;;;13.00;99.90;;;;;;5037753;28;20394;-72
2023/10/19 02:33:00;;;;;;;16.35;11.98;;;13.00;99.90;;;;;;5037788;28;20383;-70
2023/10/19 02:35:27;;;;;;;19.40;13.63;;;13.00;99.90;;;;;;5037262;28;20470;-73
2023/10/19 02:37:53;;;;;;;17.97;12.37;;;13.00;99.90;;;;;;5037400;28;20418;-70
2023/10/19 02:40:24;;;;;;;18.25;11.95;;;13.10;99.90;;;;;;5037554;28;20397;-73
2023/10/19 02:42:53;;;;;;;17.27;11.90;;;13.10;99.90;;;;;;5037809;28;20384;-71
2023/10/19 02:45:19;;;;;;;18.17;12.38;;;13.10;99.90;;;;;;5042575;28;20394;-71
2023/10/19 02:47:45;;;;;;;17.33;12.63;;;13.20;99.90;;;;;;5050325;28;20450;-72
2023/10/19 02:50:23;;;;;;;16.77;12.70;;;13.10;99.90;;;;;;5047686;28;20483;-71
2023/10/19 02:52:48;;;;;;;16.65;11.85;;;13.10;99.90;;;;;;5042871;28;20387;-72
2023/10/19 02:55:17;;;;;;;19.00;12.35;;;13.10;99.90;;;;;;5038531;28;20893;-70
2023/10/19 02:57:46;;;;;;;16.30;11.70;;;13.20;99.90;;;;;;5038453;28;20493;-72
2023/10/19 03:00:19;;;;;;;15.80;11.25;;;13.30;99.90;;;;;;5038579;28;20387;-69
2023/10/19 03:02:45;;;;;;;17.85;12.05;;;13.30;99.90;;;;;;5036859;28;21059;-70
2023/10/19 03:05:20;;;;;;;17.60;11.35;;;13.20;99.90;;;;;;5037292;28;20398;-71
2023/10/19 03:07:46;;;;;;;18.47;11.53;;;13.20;99.90;;;;;;5038558;28;20414;-70
2023/10/19 03:10:23;;;;;;;13.90;11.10;;;13.30;99.90;;;;;;5039790;28;20383;-71
2023/10/19 03:12:50;;;;;;;19.40;11.68;;;13.20;99.90;;;;;;5042266;28;20402;-71
2023/10/19 03:15:17;;;;;;;15.52;10.75;;;13.30;99.90;;;;;;5042196;28;20391;-71
2023/10/19 03:17:43;;;;;;;14.02;10.82;;;13.30;99.90;;;;;;5042328;28;20421;-70
2023/10/19 03:20:10;;;;;;;15.60;10.90;;;13.30;99.90;;;;;;5048551;23;20786;-74
2023/10/19 03:22:38;;;;;;;15.70;11.10;;;13.30;99.90;;;;;;5013613;28;20377;-74
2023/10/19 03:27:51;;;;;;;14.98;10.80;;;13.40;99.90;;;;;;5014195;28;20415;-74
2023/10/19 03:30:18;;;;;;;15.60;10.33;;;13.30;99.90;;;;;;5013708;28;20468;-74
2023/10/19 03:32:43;;;;;;;14.00;10.10;;;13.30;99.90;;;;;;5013955;28;20407;-74
2023/10/19 03:35:15;;;;;;;13.30;10.13;;;13.30;99.90;;;;;;5013492;28;20392;-74
2023/10/19 03:37:41;;;;;;;12.75;10.15;;;13.20;99.90;;;;;;5013737;28;20887;-74
2023/10/19 03:40:09;;;;;;;14.80;10.37;;;13.30;99.90;;;;;;5013680;28;20396;-74
2023/10/19 03:42:40;;;;;;;17.83;10.38;;;13.30;99.90;;;;;;5013789;28;20399;-74
2023/10/19 03:45:13;;;;;;;13.90;9.82;;;13.30;99.90;;;;;;5014001;28;20926;-74
2023/10/19 03:47:43;;;;;;;13.70;10.10;;;13.30;99.90;;;;;;5015232;28;20811;-74
2023/10/19 03:50:14;;;;;;;15.30;9.88;;;13.30;99.90;;;;;;4999080;28;20474;-74
2023/10/19 03:52:40;;;;;;;14.03;9.53;;;13.40;99.90;;;;;;5017137;28;20395;-74
2023/10/19 03:55:18;;;;;;;20.75;10.15;;;13.30;99.90;;;;;;5017415;28;20467;-75
2023/10/19 03:57:50;;;;;;;12.75;9.10;;;13.40;99.90;;;;;;5017665;28;20899;-74
2023/10/19 04:00:19;;;;;;;12.60;9.20;;;13.40;99.90;;;;;;5017182;28;20768;-74
2023/10/19 04:02:46;;;;;;;14.93;8.98;;;13.50;99.90;;;;;;5017301;28;20460;-74
2023/10/19 04:05:15;;;;;;;15.23;9.38;;;13.50;99.90;;;;;;5014513;28;20389;-74
2023/10/19 04:07:41;;;;;;;11.20;8.63;;;13.40;99.90;;;;;;4996850;28;20393;-74
2023/10/19 04:12:37;;;;;;;12.10;9.02;;;13.50;99.90;;;;;;5013439;28;20500;-74
2023/10/19 04:15:16;;;;;;;12.65;8.60;;;13.60;99.90;;;;;;5012656;28;20389;-73
2023/10/19 04:17:45;;;;;;;13.68;8.48;;;13.50;99.90;;;;;;5013043;28;20427;-74
2023/10/19 04:20:35;;;;;;;11.48;8.77;;;13.50;99.90;;;;;;5012291;28;20421;-74
2023/10/19 04:23:06;;;;;;;14.32;8.32;;;13.60;99.90;;;;;;5012374;28;20520;-74
2023/10/19 04:25:32;;;;;;;12.65;8.63;;;13.60;99.90;;;;;;5013076;28;20795;-74
2023/10/19 04:27:58;;;;;;;9.68;7.97;;;13.60;99.90;;;;;;5012861;28;20392;-74
2023/10/19 04:30:26;;;;;;;12.50;8.10;;;13.70;99.90;;;;;;5012855;28;20700;-73
2023/10/19 04:32:57;;;;;;;11.57;8.10;;;13.70;99.90;;;;;;5017686;28;20392;-75
2023/10/19 04:35:22;;;;;;;12.40;7.82;;;13.70;99.90;;;;;;5019726;28;20432;-73
2023/10/19 04:37:52;;;;;;;13.00;8.13;;;13.70;99.90;;;;;;5018800;28;20432;-75
2023/10/19 04:40:22;;;;;;;10.32;7.65;;;13.70;99.90;;;;;;5014634;28;20737;-73
2023/10/19 04:42:50;;;;;;;11.02;8.82;;;13.70;99.90;;;;;;5014082;28;20389;-74
2023/10/19 04:45:16;;;;;;;11.73;8.80;;;13.70;99.90;;;;;;4996900;28;20464;-74
2023/10/19 04:47:41;;;;;;;14.05;8.40;;;13.70;99.90;;;;;;5014340;28;20432;-75
2023/10/19 04:50:08;;;;;;;14.98;9.05;;;13.60;99.90;;;;;;5013204;28;20389;-74
2023/10/19 04:52:33;;;;;;;12.23;9.05;;;13.60;99.90;;;;;;5013229;28;20488;-74
2023/10/19 04:54:59;;;;;;;11.50;8.33;;;13.60;99.90;;;;;;5013138;28;20425;-74
2023/10/19 04:57:28;;;;;;;13.03;8.70;;;13.60;99.90;;;;;;5012897;28;20823;-74
2023/10/19 04:59:53;;;;;;;13.25;8.80;;;13.60;99.90;;;;;;5012556;28;20408;-75
2023/10/19 05:02:19;;;;;;;16.38;9.05;;;13.70;99.90;;;;;;5012968;28;20420;-75
2023/10/19 05:04:45;;;;;;;12.65;9.20;;;13.70;99.90;;;;;;5012648;28;20427;-74
2023/10/19 05:07:16;;;;;;;12.68;8.95;;;13.60;99.90;;;;;;5012315;28;20743;-73
2023/10/19 05:09:43;;;;;;;13.63;8.60;;;13.60;99.90;;;;;;5012553;28;20420;-74
2023/10/19 05:12:09;;;;;;;11.43;7.72;;;13.60;99.90;;;;;;5012641;28;20400;-74
2023/10/19 05:14:42;;;;;;;15.73;8.80;;;13.60;99.90;;;;;;5012382;28;20807;-75
2023/10/19 05:17:09;;;;;;;15.27;8.77;;;13.60;99.90;;;;;;5012690;28;20404;-74
2023/10/19 05:19:35;;;;;;;16.48;8.77;;;13.60;99.90;;;;;;5013932;28;20427;-74
2023/10/19 05:22:03;;;;;;;13.15;8.70;;;13.60;99.90;;;;;;4997850;28;20396;-75
2023/10/19 05:24:29;;;;;;;11.98;7.93;;;13.60;99.90;;;;;;5013056;28;20396;-74
2023/10/19 05:26:55;;;;;;;12.90;7.70;;;13.60;99.90;;;;;;4995124;28;20977;-76
2023/10/19 05:29:21;;;;;;;11.88;7.45;;;13.70;99.90;;;;;;5012881;28;20478;-76
2023/10/19 05:31:47;;;;;;;13.20;8.20;;;13.70;99.90;;;;;;5015440;28;20883;-76
2023/10/19 05:34:12;;;;;;;14.10;8.63;;;13.70;99.90;;;;;;5013988;28;20395;-75
2023/10/19 05:36:39;;;;;;;13.48;8.40;;;13.70;99.90;;;;;;5013112;28;20396;-74
2023/10/19 05:39:07;;;;;;;11.82;7.60;;;13.70;99.90;;;;;;5014539;28;20413;-74
2023/10/19 05:41:33;;;;;;;13.20;8.30;;;13.60;99.90;;;;;;5013678;28;20759;-75
2023/10/19 05:43:59;;;;;;;12.35;7.88;;;13.60;99.90;;;;;;5013554;28;20418;-75
2023/10/19 05:46:25;;;;;;;10.63;8.10;;;13.50;99.90;;;;;;4996050;28;20910;-75
2023/10/19 05:48:52;;;;;;;13.23;8.80;;;13.50;99.90;;;;;;5013571;28;20415;-74
2023/10/19 05:51:18;;;;;;;17.98;8.30;;;13.50;99.90;;;;;;5018131;28;20708;-73
2023/10/19 05:53:44;;;;;;;14.87;8.70;;;13.50;99.90;;;;;;5012374;28;20380;-73
2023/10/19 05:56:13;;;;;;;18.90;9.13;;;13.50;99.90;;;;;;4993112;28;20741;-74
2023/10/19 05:58:38;;;;;;;11.57;8.60;;;13.50;99.90;;;;;;4990744;28;20440;-74
2023/10/19 06:01:04;;;;;;;12.53;8.40;;;13.60;99.90;;;;;;5010420;28;20424;-73
2023/10/19 06:03:30;;;;;;;12.30;8.03;;;13.60;99.90;;;;;;5011111;28;20414;-76
2023/10/19 06:05:56;;;;;;;13.73;8.13;;;13.70;99.90;;;;;;5005379;28;20491;-73
2023/10/19 06:08:25;;;;;;;14.10;8.07;;;13.60;99.90;;;;;;4993403;28;20406;-74
2023/10/19 06:10:52;;;;;;;37.10;23.45;;;13.60;99.90;;;;;;4993942;28;20394;-74
2023/10/19 06:13:17;;;;;;;38.00;23.38;;;13.70;99.90;;;;;;4992698;28;20850;-72
2023/10/19 06:15:43;;;;;;;60.27;37.03;;;13.70;99.90;;;;;;4990247;28;20482;-75
2023/10/19 06:18:10;;;;;;;39.40;26.23;;;13.80;99.90;;;;;;4990536;28;20508;-74
2023/10/19 06:20:36;;;;;;;51.78;32.00;;;13.80;99.90;;;;;;4989782;28;20488;-73
2023/10/19 06:23:05;;;;;;;13.98;8.50;;;13.90;99.90;;;;;;4991400;28;20386;-73
2023/10/19 06:25:32;;;;;;;12.88;8.07;;;13.90;99.90;;;;;;4990212;28;20383;-74
2023/10/19 06:27:59;;;;;;;12.05;7.72;;;13.90;99.90;;;;;;4990586;28;20473;-74
2023/10/19 06:30:26;;;;;;;15.20;8.10;;;13.90;99.90;;;;;;4988638;28;20436;-74
2023/10/19 06:32:57;;;;;;;12.50;8.30;;;13.90;99.90;;;;;;4990411;28;20410;-75
2023/10/19 06:35:23;;;;;;;12.17;7.70;;;13.90;99.90;;;;;;4990300;28;20437;-74
2023/10/19 06:37:49;;;;;;;15.20;8.70;;;13.90;99.90;;;;;;4990027;28;20450;-74
2023/10/19 06:40:16;;;;;;;11.17;8.00;;;13.90;99.90;;;;;;4990048;28;20535;-74
2023/10/19 06:42:45;;;;;;;11.27;7.60;;;13.90;99.90;;;;;;4988901;28;20394;-73
2023/10/19 06:45:15;;;;;;;11.60;8.10;;;14.00;99.90;;;;;;4991533;28;20429;-75
2023/10/19 06:47:45;;;;;;;12.82;7.63;;;14.00;99.90;;;;;;4997370;28;20882;-73
2023/10/19 06:50:20;;;;;;;13.98;8.10;;;14.00;99.90;;;;;;5012168;28;20443;-75
2023/10/19 06:52:47;;;;;;;16.50;8.00;;;14.00;99.90;;;;;;5012955;28;20431;-73
2023/10/19 06:55:13;;;;;;;14.50;7.60;;;14.10;99.90;;;;;;4995211;28;20413;-73
2023/10/19 06:57:47;;;;;;;15.23;8.15;;;14.10;99.90;;;;;;4993174;28;20402;-75
2023/10/19 07:00:15;;;;;;;14.43;8.55;;;14.20;99.90;;;;;;4993643;28;20474;-73
2023/10/19 07:02:43;;;;;;;10.57;7.70;;;14.20;99.90;;;;;;4994012;28;20903;-74
2023/10/19 07:05:13;;;;;;;12.10;7.70;;;14.20;99.90;;;;;;5006648;28;20478;-75
2023/10/19 07:07:41;;;;;;;14.13;8.00;;;14.20;99.90;;;;;;4992992;28;20394;-73
2023/10/19 07:10:09;;;;;;;13.80;8.80;;;14.30;99.90;;;;;;4993079;28;20944;-74
2023/10/19 07:12:36;;;;;;;13.75;7.85;;;14.30;99.90;;;;;;4993668;28;20406;-74
2023/10/19 07:15:03;;;;;;;13.70;8.40;;;14.30;99.90;;;;;;4997585;28;20814;-73
2023/10/19 07:17:28;;;;;;;19.00;8.45;;;14.40;99.90;;;;;;5013776;28;20488;-75
2023/10/19 07:19:54;;;;;;;12.68;7.82;;;14.40;98.40;;;;;;5013438;28;20426;-73
2023/10/19 07:22:22;;;;;;;11.00;7.28;;;14.40;98.50;;;;;;5014217;28;20451;-75
2023/10/19 07:24:48;;;;;;;12.13;7.40;;;14.40;98.40;;;;;;5015379;28;20741;-75
2023/10/19 07:27:18;;;;;;;16.73;9.07;;;14.50;97.60;;;;;;5014175;28;20464;-74
2023/10/19 07:29:44;;;;;;;13.70;8.00;;;14.50;98.00;;;;;;5012216;28;20396;-75
2023/10/19 07:32:13;;;;;;;14.50;8.27;;;14.50;96.40;;;;;;4995521;28;20410;-74
2023/10/19 07:34:39;;;;;;;12.23;8.63;;;14.60;96.20;;;;;;4993061;28;20421;-74
2023/10/19 07:37:05;;;;;;;14.17;7.70;;;14.60;95.40;;;;;;4993023;28;20406;-72
2023/10/19 07:39:33;;;;;;;13.10;8.23;;;14.70;94.50;;;;;;4992827;28;20414;-73
2023/10/19 07:41:59;;;;;;;12.00;7.80;;;14.70;93.80;;;;;;5003861;28;20484;-74
2023/10/19 07:44:25;;;;;;;13.70;8.30;;;14.80;92.50;;;;;;5013008;28;20392;-74
2023/10/19 07:46:52;;;;;;;12.48;8.23;;;14.80;91.80;;;;;;5012053;28;20890;-74
2023/10/19 07:49:17;;;;;;;14.77;8.53;;;14.90;89.80;;;;;;5012851;28;20794;-74
2023/10/19 07:51:50;;;;;;;12.90;9.20;;;15.00;89.40;;;;;;4995844;28;20475;-75
2023/10/19 07:54:16;;;;;;;12.45;8.63;;;15.10;88.90;;;;;;4992577;28;20473;-74
2023/10/19 07:56:42;;;;;;;13.30;7.90;;;15.10;88.60;;;;;;4992287;28;20440;-73
2023/10/19 07:59:07;;;;;;;16.57;8.50;;;15.20;88.90;;;;;;4992910;28;20480;-73
2023/10/19 08:01:33;;;;;;;10.55;7.93;;;15.20;87.60;;;;;;4992548;28;20387;-73
2023/10/19 08:03:59;;;;;;;18.13;8.98;;;15.20;87.60;;;;;;4991995;28;20678;-73
2023/10/19 08:06:24;;;;;;;13.13;8.18;;;15.30;86.20;;;;;;4992124;28;20391;-73
2023/10/19 08:08:50;;;;;;;12.20;8.10;;;15.40;84.70;;;;;;4992197;28;20422;-73
2023/10/19 08:11:16;;;;;;;10.20;7.87;;;15.40;84.20;;;;;;4992284;28;20406;-73
2023/10/19 08:13:42;;;;;;;12.00;7.80;;;15.50;82.60;;;;;;5007064;28;20443;-73
2023/10/19 08:16:08;;;;;;;13.10;7.80;;;15.70;81.30;;;;;;5011708;28;20424;-72
2023/10/19 08:18:37;;;;;;;13.03;7.70;;;15.80;79.30;;;;;;5011865;28;20527;-73
2023/10/19 08:21:03;;;;;;;15.02;8.00;;;16.10;78.40;;;;;;5011335;28;20423;-73
2023/10/19 08:23:31;;;;;;;9.68;7.00;;;16.50;73.30;;;;;;5011664;28;20795;-73
2023/10/19 08:25:57;;;;;;;11.55;7.70;;;16.80;70.10;;;;;;5007450;28;20399;-73
2023/10/19 08:28:23;;;;;;;12.05;7.40;;;17.20;66.50;;;;;;4992475;28;20650;-75
2023/10/19 08:31:00;;;;;;;14.90;7.47;;;17.50;62.40;;;;;;5008702;28;20408;-74
2023/10/19 08:33:26;;;;;;;16.50;7.10;;;17.90;58.40;;;;;;5009911;28;20811;-73
2023/10/19 08:35:59;;;;;;;9.65;7.20;;;18.00;56.70;;;;;;4999271;28;20400;-74
2023/10/19 08:38:25;;;;;;;9.02;6.57;;;18.00;55.40;;;;;;5006576;28;20410;-74
2023/10/19 08:40:51;;;;;;;9.98;6.72;;;18.10;54.40;;;;;;5005801;28;20413;-73
2023/10/19 08:43:18;;;;;;;12.30;6.65;;;18.00;55.80;;;;;;4999335;28;20409;-73
2023/10/19 08:45:44;;;;;;;9.40;6.32;;;17.90;56.90;;;;;;4974427;28;20398;-73
2023/10/19 08:48:11;;;;;;;12.30;6.93;;;17.80;57.20;;;;;;5011270;28;20393;-74
2023/10/19 08:50:37;;;;;;;13.85;7.22;;;17.70;58.30;;;;;;5011244;28;20496;-73
2023/10/19 08:53:04;;;;;;;13.60;6.78;;;17.60;59.60;;;;;;5012037;28;20397;-75
2023/10/19 08:55:31;;;;;;;11.30;6.90;;;17.70;59.70;;;;;;5002667;28;20433;-74
2023/10/19 08:57:59;;;;;;;11.25;6.10;;;17.90;58.10;;;;;;4992020;28;20453;-75
2023/10/19 09:00:26;;;;;;;13.15;6.15;;;18.20;55.70;;;;;;5001661;28;20395;-75
2023/10/19 09:02:53;;;;;;;10.80;6.20;;;18.50;54.70;;;;;;4991077;28;20398;-75
2023/10/19 09:05:22;;;;;;;12.57;6.60;;;18.70;52.40;;;;;;4992697;28;20509;-74
2023/10/19 09:07:54;;;;;;;13.88;7.60;;;18.60;51.90;;;;;;5011415;28;20393;-75
2023/10/19 09:10:25;;;;;;;15.88;8.50;;;18.60;51.70;;;;;;5011957;28;20397;-75
2023/10/19 09:13:04;;;;;;;13.85;6.90;;;18.60;52.00;;;;;;5013192;28;20401;-73
2023/10/19 09:15:32;;;;;;;14.80;6.70;;;18.50;52.80;;;;;;5011732;28;20388;-75
2023/10/19 09:17:59;;;;;;;15.82;7.20;;;18.40;53.60;;;;;;5010509;28;20416;-73
2023/10/19 09:20:27;;;;;;;11.38;6.20;;;18.50;52.90;;;;;;5010723;28;20475;-73
2023/10/19 09:22:57;;;;;;;10.82;6.85;;;18.50;52.00;;;;;;5010261;28;20395;-72
2023/10/19 09:25:23;;;;;;;13.88;6.50;;;18.40;53.20;;;;;;5010477;28;20396;-74
2023/10/19 09:27:49;;;;;;;15.50;6.40;;;18.60;51.60;;;;;;5010235;28;20860;-73
2023/10/19 09:30:18;;;;;;;16.42;6.40;;;18.60;50.60;;;;;;5007514;28;20484;-73
2023/10/19 09:32:47;;;;;;;9.52;6.35;;;18.40;52.20;;;;;;5009539;28;20388;-73
2023/10/19 09:35:17;;;;;;;12.35;6.80;;;18.30;52.00;;;;;;5003332;28;20403;-74
2023/10/19 09:37:43;;;;;;;12.73;6.35;;;18.20;52.80;;;;;;4989627;28;20424;-74
2023/10/19 09:40:12;;;;;;;13.43;5.93;;;18.00;54.80;;;;;;4989690;28;20470;-75
2023/10/19 09:42:46;;;;;;;11.82;6.30;;;17.90;55.20;;;;;;4974030;28;20479;-72
2023/10/19 09:45:12;;;;;;;15.70;6.10;;;17.90;56.10;;;;;;5007296;28;20799;-73
2023/10/19 09:47:44;;;;;;;16.75;6.00;;;17.80;56.00;;;;;;5009335;28;20452;-74
2023/10/19 09:50:11;;;;;;;13.13;5.70;;;17.60;57.40;;;;;;5006561;28;20478;-73
2023/10/19 09:52:38;;;;;;;20.48;6.07;;;17.60;57.70;;;;;;5003781;28;20428;-74
2023/10/19 09:55:28;;;;;;;13.80;6.50;;;17.60;58.50;;;;;;4994816;28;20457;-73
2023/10/19 09:58:05;;;;;;;13.63;5.43;;;17.80;58.70;;;;;;4990559;28;20512;-72
2023/10/19 10:00:31;;;;;;;13.57;6.00;;;18.00;56.60;;;;;;4989025;28;20397;-73
2023/10/19 10:02:57;;;;;;;16.73;5.32;;;18.40;55.40;;;;;;4989952;28;20410;-73
2023/10/19 10:05:44;;;;;;;9.53;4.50;;;18.50;52.90;;;;;;4990414;28;20790;-74
2023/10/19 10:08:20;;;;;;;15.90;4.33;;;18.70;51.40;;;;;;4998743;28;20399;-72
2023/10/19 10:10:50;;;;;;;13.93;4.57;;;18.80;48.70;;;;;;5008819;28;20456;-72
2023/10/19 10:13:28;;;;;;;9.85;4.30;;;18.90;48.90;;;;;;4991683;28;20402;-73
2023/10/19 10:15:58;;;;;;;15.32;3.75;;;19.00;47.90;;;;;;4990815;28;20404;-74
2023/10/19 10:18:30;;;;;;;14.40;3.85;;;19.10;47.00;;;;;;4989675;28;20917;-74
2023/10/19 10:21:12;;;;;;;14.45;4.13;;;19.20;46.20;;;;;;4993950;28;20830;-74
2023/10/19 10:23:45;;;;;;;8.60;4.15;;;19.10;45.00;;;;;;4975930;28;20425;-73
2023/10/19 10:26:12;;;;;;;9.88;3.70;;;19.10;45.20;;;;;;4993360;28;20389;-74
2023/10/19 10:28:38;;;;;;;18.73;4.80;;;19.00;46.00;;;;;;4992229;28;20706;-72
2023/10/19 10:31:24;;;;;;;16.30;4.00;;;19.20;46.10;;;;;;4992637;28;20378;-74
2023/10/19 10:33:54;;;;;;;13.77;4.22;;;19.30;44.60;;;;;;4993527;28;20401;-74
2023/10/19 10:36:21;;;;;;;14.05;4.03;;;19.50;44.60;;;;;;4993890;28;20489;-74
2023/10/19 10:38:48;;;;;;;12.98;3.50;;;19.50;44.30;;;;;;4995255;28;20414;-73
2023/10/19 10:41:31;;;;;;;8.18;3.70;;;19.60;43.70;;;;;;5010877;28;20397;-73
2023/10/19 10:43:58;;;;;;;11.80;4.45;;;19.60;43.70;;;;;;5015278;28;20385;-74
2023/10/19 10:46:28;;;;;;;14.30;3.80;;;19.70;43.10;;;;;;5014360;28;20385;-73
2023/10/19 10:48:54;;;;;;;12.38;4.60;;;19.80;42.20;;;;;;5013161;28;20453;-74
2023/10/19 10:51:22;;;;;;;8.73;3.00;;;19.80;41.40;;;;;;5016547;28;20453;-74
2023/10/19 10:53:49;;;;;;;9.07;2.97;;;20.00;40.30;;;;;;5019913;28;20389;-73
2023/10/19 10:56:17;;;;;;;15.83;4.13;;;20.10;39.00;;;;;;5016742;28;20422;-75
2023/10/19 10:58:43;;;;;;;9.65;3.50;;;20.20;38.80;;;;;;5019027;28;20414;-74
2023/10/19 11:01:10;;;;;;;13.20;3.65;;;20.20;37.80;;;;;;5015629;28;20400;-74
2023/10/19 11:03:39;;;;;;;8.55;2.90;;;20.10;37.80;;;;;;5011491;28;20410;-73
2023/10/19 11:06:07;;;;;;;14.20;2.95;;;20.10;36.50;;;;;;5003188;28;20416;-74
2023/10/19 11:08:34;;;;;;;12.43;3.30;;;20.10;37.10;;;;;;5009492;28;20913;-73
2023/10/19 11:11:12;;;;;;;12.23;3.20;;;19.90;37.50;;;;;;5012730;28;20867;-74
2023/10/19 11:13:39;;;;;;;11.82;3.30;;;19.80;37.90;;;;;;4995677;28;20409;-74
2023/10/19 11:16:07;;;;;;;14.37;3.70;;;19.70;38.90;;;;;;5013414;28;20436;-72
2023/10/19 11:18:39;;;;;;;8.55;2.80;;;19.80;39.30;;;;;;4998886;28;20414;-74
2023/10/19 11:21:09;;;;;;;13.07;3.80;;;19.60;39.00;;;;;;5003199;28;20404;-73
2023/10/19 11:23:56;;;;;;;11.40;3.10;;;19.50;39.70;;;;;;5013275;28;20747;-73
2023/10/19 11:26:26;;;;;;;14.57;4.30;;;19.30;40.30;;;;;;4994479;28;20419;-73
2023/10/19 11:29:04;;;;;;;11.50;3.80;;;19.30;40.00;;;;;;4993819;28;20441;-74
2023/10/19 11:31:37;;;;;;;13.82;3.60;;;19.20;40.40;;;;;;4976036;28;20405;-73
2023/10/19 11:34:03;;;;;;;9.20;3.10;;;19.20;40.90;;;;;;4994276;28;20394;-73
2023/10/19 11:36:29;;;;;;;10.15;4.43;;;19.10;41.60;;;;;;4996481;28;20403;-73
2023/10/19 11:38:55;;;;;;;10.10;2.85;;;19.30;40.90;;;;;;5013677;28;20536;-73
2023/10/19 11:41:21;;;;;;;13.70;4.20;;;19.40;41.20;;;;;;4995887;28;20389;-72
2023/10/19 11:43:49;;;;;;;17.30;4.20;;;19.60;41.30;;;;;;5013545;28;20399;-73
2023/10/19 11:46:17;;;;;;;11.50;3.20;;;19.90;39.00;;;;;;5012802;28;20460;-74
2023/10/19 11:48:43;;;;;;;13.50;3.13;;;20.30;38.70;;;;;;5012860;28;20739;-74
2023/10/19 11:51:10;;;;;;;11.77;3.13;;;20.70;37.90;;;;;;5008833;28;20401;-74
2023/10/19 11:53:37;;;;;;;8.82;3.13;;;20.90;36.80;;;;;;4992980;28;20494;-73
2023/10/19 11:56:05;;;;;;;10.52;3.05;;;21.00;35.40;;;;;;4995558;28;20477;-73
2023/10/19 11:58:34;;;;;;;10.05;2.90;;;21.10;35.80;;;;;;5013040;28;20791;-73
2023/10/19 12:01:04;;;;;;;10.43;3.53;;;21.20;34.60;;;;;;5012399;28;20392;-73
2023/10/19 12:03:29;;;;;;;11.30;3.20;;;21.10;34.10;;;;;;5000502;28;20733;-74
2023/10/19 12:05:56;;;;;;;9.50;2.90;;;21.00;34.50;;;;;;5012676;28;20442;-73
2023/10/19 12:08:22;;;;;;;9.95;2.92;;;20.90;35.40;;;;;;5002126;28;20406;-74
2023/10/19 12:10:49;;;;;;;12.98;4.20;;;20.90;35.70;;;;;;4994341;28;20393;-73
2023/10/19 12:13:16;;;;;;;11.45;3.95;;;21.20;35.80;;;;;;4993737;28;20482;-73
2023/10/19 12:15:41;;;;;;;10.05;3.80;;;21.30;34.20;;;;;;4997222;28;20399;-72
2023/10/19 12:18:08;;;;;;;11.23;3.07;;;21.30;34.50;;;;;;4976439;28;20417;-73
2023/10/19 12:20:35;;;;;;;11.10;3.97;;;21.20;35.10;;;;;;4993695;28;21025;-73
2023/10/19 12:23:01;;;;;;;12.05;4.10;;;21.00;35.90;;;;;;4992717;28;20402;-73
2023/10/19 12:25:29;;;;;;;13.88;2.60;;;21.00;35.30;;;;;;4992887;28;20762;-73
2023/10/19 12:27:57;;;;;;;9.98;3.60;;;21.20;34.00;;;;;;4992544;28;20407;-73
2023/10/19 12:30:25;;;;;;;12.95;3.35;;;21.10;34.60;;;;;;4980472;28;20401;-73
2023/10/19 12:32:52;;;;;;;8.07;2.80;;;21.00;34.90;;;;;;5000647;28;20881;-72
2023/10/19 12:35:24;;;;;;;12.75;3.60;;;20.90;36.40;;;;;;5010848;28;20412;-73
2023/10/19 12:37:53;;;;;;;12.95;3.75;;;20.60;36.70;;;;;;5011899;28;20409;-72
2023/10/19 12:40:37;;;;;;;13.88;3.00;;;20.60;37.00;;;;;;5003116;28;20476;-73
2023/10/19 12:43:07;;;;;;;10.23;3.67;;;20.60;37.20;;;;;;4998639;28;20394;-73
2023/10/19 12:45:36;;;;;;;17.52;3.95;;;20.40;38.10;;;;;;5000219;28;20404;-73
2023/10/19 12:48:04;;;;;;;12.07;2.80;;;20.30;38.40;;;;;;5010064;28;20447;-73
2023/10/19 12:50:30;;;;;;;13.60;3.60;;;20.20;39.20;;;;;;5010285;28;20476;-73
2023/10/19 12:52:56;;;;;;;17.80;3.50;;;19.90;41.00;;;;;;4988261;28;20408;-73
2023/10/19 12:55:25;;;;;;;9.35;3.47;;;19.80;41.40;;;;;;5005684;28;20492;-74
2023/10/19 12:57:50;;;;;;;9.80;3.40;;;19.60;42.20;;;;;;5005013;28;20444;-74
2023/10/19 13:00:26;;;;;;;12.87;3.83;;;19.50;43.50;;;;;;4990127;28;20386;-74